sensor_id;sensor_type;location;lat;lon;timestamp;P1;durP1;ratioP1;P2;durP2;ratioP2
41293;SDS011;27037;52.010;4.446;2023-07-16T00:01:39;11.70;;;4.30;;
41293;SDS011;27037;52.010;4.446;2023-07-16T00:04:04;12.68;;;4.40;;
41293;SDS011;27037;52.010;4.446;2023-07-16T00:06:30;14.93;;;5.10;;
41293;SDS011;27037;52.010;4.446;2023-07-16T00:08:56;14.90;;;4.45;;
41293;SDS011;27037;52.010;4.446;2023-07-16T00:11:21;16.13;;;4.43;;
41293;SDS011;27037;52.010;4.446;2023-07-16T00:13:47;13.57;;;4.85;;
41293;SDS011;27037;52.010;4.446;2023-07-16T00:16:14;18.15;;;5.32;;
41293;SDS011;27037;52.010;4.446;2023-07-16T00:18:41;13.43;;;4.47;;
41293;SDS011;27037;52.010;4.446;2023-07-16T00:21:07;15.75;;;5.03;;
41293;SDS011;27037;52.010;4.446;2023-07-16T00:23:33;13.43;;;5.10;;
41293;SDS011;27037;52.010;4.446;2023-07-16T00:25:58;17.00;;;5.40;;
41293;SDS011;27037;52.010;4.446;2023-07-16T00:28:24;17.02;;;4.95;;
41293;SDS011;27037;52.010;4.446;2023-07-16T00:30:50;16.65;;;5.55;;
41293;SDS011;27037;52.010;4.446;2023-07-16T00:33:15;18.42;;;4.70;;
41293;SDS011;27037;52.010;4.446;2023-07-16T00:35:46;16.63;;;5.30;;
41293;SDS011;27037;52.010;4.446;2023-07-16T00:38:13;16.98;;;5.55;;
41293;SDS011;27037;52.010;4.446;2023-07-16T00:40:39;13.88;;;5.00;;
41293;SDS011;27037;52.010;4.446;2023-07-16T00:43:05;13.70;;;5.07;;
41293;SDS011;27037;52.010;4.446;2023-07-16T00:45:30;20.48;;;5.45;;
41293;SDS011;27037;52.010;4.446;2023-07-16T00:47:56;18.00;;;5.30;;
41293;SDS011;27037;52.010;4.446;2023-07-16T00:50:22;15.40;;;5.68;;
41293;SDS011;27037;52.010;4.446;2023-07-16T00:52:48;21.65;;;5.80;;
41293;SDS011;27037;52.010;4.446;2023-07-16T00:55:14;18.88;;;5.75;;
41293;SDS011;27037;52.010;4.446;2023-07-16T00:57:40;15.18;;;5.03;;
41293;SDS011;27037;52.010;4.446;2023-07-16T01:00:06;17.35;;;5.65;;
41293;SDS011;27037;52.010;4.446;2023-07-16T01:02:32;14.02;;;5.65;;
41293;SDS011;27037;52.010;4.446;2023-07-16T01:04:58;14.10;;;5.20;;
41293;SDS011;27037;52.010;4.446;2023-07-16T01:07:25;20.00;;;6.07;;
41293;SDS011;27037;52.010;4.446;2023-07-16T01:09:53;18.88;;;5.32;;
41293;SDS011;27037;52.010;4.446;2023-07-16T01:12:20;20.90;;;5.88;;
41293;SDS011;27037;52.010;4.446;2023-07-16T01:14:47;20.95;;;6.30;;
41293;SDS011;27037;52.010;4.446;2023-07-16T01:17:13;17.75;;;5.70;;
41293;SDS011;27037;52.010;4.446;2023-07-16T01:19:38;16.85;;;5.65;;
41293;SDS011;27037;52.010;4.446;2023-07-16T01:22:16;13.63;;;5.80;;
41293;SDS011;27037;52.010;4.446;2023-07-16T01:30:24;15.45;;;6.65;;
41293;SDS011;27037;52.010;4.446;2023-07-16T01:32:52;17.08;;;6.70;;
41293;SDS011;27037;52.010;4.446;2023-07-16T01:35:19;18.02;;;6.82;;
41293;SDS011;27037;52.010;4.446;2023-07-16T01:37:45;18.27;;;6.93;;
41293;SDS011;27037;52.010;4.446;2023-07-16T01:40:11;21.65;;;7.68;;
41293;SDS011;27037;52.010;4.446;2023-07-16T01:42:37;23.65;;;6.85;;
41293;SDS011;27037;52.010;4.446;2023-07-16T01:45:03;21.20;;;7.50;;
41293;SDS011;27037;52.010;4.446;2023-07-16T01:50:13;20.83;;;7.30;;
41293;SDS011;27037;52.010;4.446;2023-07-16T01:52:39;17.08;;;7.40;;
41293;SDS011;27037;52.010;4.446;2023-07-16T01:55:05;24.83;;;7.55;;
41293;SDS011;27037;52.010;4.446;2023-07-16T01:57:31;20.60;;;7.07;;
41293;SDS011;27037;52.010;4.446;2023-07-16T01:59:56;19.75;;;7.25;;
41293;SDS011;27037;52.010;4.446;2023-07-16T02:02:22;22.55;;;7.63;;
41293;SDS011;27037;52.010;4.446;2023-07-16T02:04:47;21.17;;;7.35;;
41293;SDS011;27037;52.010;4.446;2023-07-16T02:07:13;21.95;;;7.72;;
41293;SDS011;27037;52.010;4.446;2023-07-16T02:09:39;19.73;;;7.40;;
41293;SDS011;27037;52.010;4.446;2023-07-16T02:12:05;21.33;;;7.60;;
41293;SDS011;27037;52.010;4.446;2023-07-16T02:14:31;23.38;;;7.45;;
41293;SDS011;27037;52.010;4.446;2023-07-16T02:16:57;21.95;;;8.15;;
41293;SDS011;27037;52.010;4.446;2023-07-16T02:19:22;20.10;;;7.40;;
41293;SDS011;27037;52.010;4.446;2023-07-16T02:21:50;21.25;;;8.15;;
41293;SDS011;27037;52.010;4.446;2023-07-16T02:24:16;22.30;;;8.05;;
41293;SDS011;27037;52.010;4.446;2023-07-16T02:26:41;20.23;;;7.93;;
41293;SDS011;27037;52.010;4.446;2023-07-16T02:29:07;21.30;;;7.80;;
41293;SDS011;27037;52.010;4.446;2023-07-16T02:31:34;20.52;;;8.10;;
41293;SDS011;27037;52.010;4.446;2023-07-16T02:34:00;22.60;;;8.15;;
41293;SDS011;27037;52.010;4.446;2023-07-16T02:36:25;22.63;;;8.75;;
41293;SDS011;27037;52.010;4.446;2023-07-16T02:38:51;25.77;;;8.00;;
41293;SDS011;27037;52.010;4.446;2023-07-16T02:41:16;26.63;;;9.10;;
41293;SDS011;27037;52.010;4.446;2023-07-16T02:43:42;21.83;;;9.05;;
41293;SDS011;27037;52.010;4.446;2023-07-16T02:46:10;20.48;;;8.35;;
41293;SDS011;27037;52.010;4.446;2023-07-16T02:48:35;21.02;;;8.30;;
41293;SDS011;27037;52.010;4.446;2023-07-16T02:51:01;23.90;;;8.25;;
41293;SDS011;27037;52.010;4.446;2023-07-16T02:53:27;22.83;;;8.30;;
41293;SDS011;27037;52.010;4.446;2023-07-16T02:55:52;19.65;;;7.18;;
41293;SDS011;27037;52.010;4.446;2023-07-16T02:58:18;21.00;;;7.88;;
41293;SDS011;27037;52.010;4.446;2023-07-16T03:00:43;20.85;;;6.50;;
41293;SDS011;27037;52.010;4.446;2023-07-16T03:03:09;15.68;;;6.35;;
41293;SDS011;27037;52.010;4.446;2023-07-16T03:05:35;16.90;;;6.38;;
41293;SDS011;27037;52.010;4.446;2023-07-16T03:08:00;11.75;;;6.32;;
41293;SDS011;27037;52.010;4.446;2023-07-16T03:10:26;22.67;;;6.00;;
41293;SDS011;27037;52.010;4.446;2023-07-16T03:12:52;16.55;;;5.45;;
41293;SDS011;27037;52.010;4.446;2023-07-16T03:15:18;20.30;;;6.00;;
41293;SDS011;27037;52.010;4.446;2023-07-16T03:17:43;22.50;;;6.13;;
41293;SDS011;27037;52.010;4.446;2023-07-16T03:20:09;15.80;;;5.90;;
41293;SDS011;27037;52.010;4.446;2023-07-16T03:22:35;15.35;;;5.57;;
41293;SDS011;27037;52.010;4.446;2023-07-16T03:25:01;16.20;;;6.18;;
41293;SDS011;27037;52.010;4.446;2023-07-16T03:27:27;16.98;;;6.60;;
41293;SDS011;27037;52.010;4.446;2023-07-16T03:29:53;14.40;;;6.10;;
41293;SDS011;27037;52.010;4.446;2023-07-16T03:32:19;15.02;;;5.38;;
41293;SDS011;27037;52.010;4.446;2023-07-16T03:34:45;12.82;;;5.85;;
41293;SDS011;27037;52.010;4.446;2023-07-16T03:37:10;19.05;;;6.90;;
41293;SDS011;27037;52.010;4.446;2023-07-16T03:39:36;16.52;;;6.72;;
41293;SDS011;27037;52.010;4.446;2023-07-16T03:42:02;20.08;;;6.50;;
41293;SDS011;27037;52.010;4.446;2023-07-16T03:44:29;24.63;;;7.25;;
41293;SDS011;27037;52.010;4.446;2023-07-16T03:46:55;26.60;;;8.13;;
41293;SDS011;27037;52.010;4.446;2023-07-16T03:49:20;20.30;;;8.23;;
41293;SDS011;27037;52.010;4.446;2023-07-16T03:51:46;22.08;;;7.70;;
41293;SDS011;27037;52.010;4.446;2023-07-16T03:54:11;21.42;;;7.40;;
41293;SDS011;27037;52.010;4.446;2023-07-16T03:56:37;19.50;;;6.95;;
41293;SDS011;27037;52.010;4.446;2023-07-16T03:59:03;22.48;;;7.55;;
41293;SDS011;27037;52.010;4.446;2023-07-16T04:01:29;22.35;;;7.85;;
41293;SDS011;27037;52.010;4.446;2023-07-16T04:03:54;23.60;;;7.70;;
41293;SDS011;27037;52.010;4.446;2023-07-16T04:06:20;21.63;;;7.43;;
41293;SDS011;27037;52.010;4.446;2023-07-16T04:08:46;22.65;;;7.47;;
41293;SDS011;27037;52.010;4.446;2023-07-16T04:11:11;22.13;;;7.82;;
41293;SDS011;27037;52.010;4.446;2023-07-16T04:13:37;14.98;;;7.50;;
41293;SDS011;27037;52.010;4.446;2023-07-16T04:16:03;17.45;;;7.47;;
41293;SDS011;27037;52.010;4.446;2023-07-16T04:18:28;21.05;;;8.45;;
41293;SDS011;27037;52.010;4.446;2023-07-16T04:20:54;21.27;;;7.25;;
41293;SDS011;27037;52.010;4.446;2023-07-16T04:23:20;21.27;;;8.13;;
41293;SDS011;27037;52.010;4.446;2023-07-16T04:25:45;17.80;;;7.47;;
41293;SDS011;27037;52.010;4.446;2023-07-16T04:28:11;20.45;;;7.88;;
41293;SDS011;27037;52.010;4.446;2023-07-16T04:30:37;18.38;;;7.97;;
41293;SDS011;27037;52.010;4.446;2023-07-16T04:33:03;18.63;;;8.15;;
41293;SDS011;27037;52.010;4.446;2023-07-16T04:35:29;21.33;;;7.88;;
41293;SDS011;27037;52.010;4.446;2023-07-16T04:37:55;16.40;;;7.65;;
41293;SDS011;27037;52.010;4.446;2023-07-16T04:40:20;17.45;;;7.45;;
41293;SDS011;27037;52.010;4.446;2023-07-16T04:42:46;15.02;;;7.07;;
41293;SDS011;27037;52.010;4.446;2023-07-16T04:45:12;18.55;;;7.38;;
41293;SDS011;27037;52.010;4.446;2023-07-16T04:47:38;21.65;;;8.18;;
41293;SDS011;27037;52.010;4.446;2023-07-16T04:50:04;19.10;;;7.70;;
41293;SDS011;27037;52.010;4.446;2023-07-16T04:52:30;17.25;;;7.25;;
41293;SDS011;27037;52.010;4.446;2023-07-16T04:54:55;23.58;;;7.75;;
41293;SDS011;27037;52.010;4.446;2023-07-16T04:57:21;20.92;;;7.72;;
41293;SDS011;27037;52.010;4.446;2023-07-16T04:59:47;16.80;;;7.00;;
41293;SDS011;27037;52.010;4.446;2023-07-16T05:02:12;18.35;;;7.60;;
41293;SDS011;27037;52.010;4.446;2023-07-16T05:04:40;19.05;;;7.15;;
41293;SDS011;27037;52.010;4.446;2023-07-16T05:07:06;16.55;;;7.10;;
41293;SDS011;27037;52.010;4.446;2023-07-16T05:09:32;15.40;;;6.85;;
41293;SDS011;27037;52.010;4.446;2023-07-16T05:11:57;18.45;;;6.97;;
41293;SDS011;27037;52.010;4.446;2023-07-16T05:14:26;17.85;;;6.78;;
41293;SDS011;27037;52.010;4.446;2023-07-16T05:16:53;18.27;;;6.90;;
41293;SDS011;27037;52.010;4.446;2023-07-16T05:19:18;16.50;;;6.80;;
41293;SDS011;27037;52.010;4.446;2023-07-16T05:21:44;16.27;;;6.95;;
41293;SDS011;27037;52.010;4.446;2023-07-16T05:24:10;16.48;;;6.93;;
41293;SDS011;27037;52.010;4.446;2023-07-16T05:26:35;13.98;;;6.57;;
41293;SDS011;27037;52.010;4.446;2023-07-16T05:29:01;17.38;;;6.55;;
41293;SDS011;27037;52.010;4.446;2023-07-16T05:31:27;19.85;;;7.13;;
41293;SDS011;27037;52.010;4.446;2023-07-16T05:33:52;18.30;;;6.95;;
41293;SDS011;27037;52.010;4.446;2023-07-16T05:36:18;18.45;;;7.25;;
41293;SDS011;27037;52.010;4.446;2023-07-16T05:38:44;19.85;;;7.38;;
41293;SDS011;27037;52.010;4.446;2023-07-16T05:41:09;19.00;;;6.63;;
41293;SDS011;27037;52.010;4.446;2023-07-16T05:43:35;17.55;;;6.93;;
41293;SDS011;27037;52.010;4.446;2023-07-16T05:46:01;18.52;;;7.07;;
41293;SDS011;27037;52.010;4.446;2023-07-16T05:48:26;20.80;;;7.20;;
41293;SDS011;27037;52.010;4.446;2023-07-16T05:50:52;19.90;;;6.70;;
41293;SDS011;27037;52.010;4.446;2023-07-16T05:53:18;17.08;;;6.75;;
41293;SDS011;27037;52.010;4.446;2023-07-16T05:55:43;18.38;;;7.07;;
41293;SDS011;27037;52.010;4.446;2023-07-16T05:58:09;18.92;;;7.65;;
41293;SDS011;27037;52.010;4.446;2023-07-16T06:00:35;17.00;;;7.32;;
41293;SDS011;27037;52.010;4.446;2023-07-16T06:03:03;17.05;;;6.93;;
41293;SDS011;27037;52.010;4.446;2023-07-16T06:05:29;22.02;;;7.82;;
41293;SDS011;27037;52.010;4.446;2023-07-16T06:07:59;16.17;;;7.50;;
41293;SDS011;27037;52.010;4.446;2023-07-16T06:10:25;17.90;;;7.80;;
41293;SDS011;27037;52.010;4.446;2023-07-16T06:12:51;17.58;;;8.10;;
41293;SDS011;27037;52.010;4.446;2023-07-16T06:15:17;17.92;;;7.43;;
41293;SDS011;27037;52.010;4.446;2023-07-16T06:17:42;19.15;;;7.75;;
41293;SDS011;27037;52.010;4.446;2023-07-16T06:20:08;18.40;;;7.32;;
41293;SDS011;27037;52.010;4.446;2023-07-16T06:22:34;18.17;;;7.80;;
41293;SDS011;27037;52.010;4.446;2023-07-16T06:24:59;21.15;;;7.32;;
41293;SDS011;27037;52.010;4.446;2023-07-16T06:27:25;17.08;;;7.35;;
41293;SDS011;27037;52.010;4.446;2023-07-16T06:29:51;19.15;;;7.53;;
41293;SDS011;27037;52.010;4.446;2023-07-16T06:32:16;20.98;;;7.63;;
41293;SDS011;27037;52.010;4.446;2023-07-16T06:34:42;21.52;;;7.22;;
41293;SDS011;27037;52.010;4.446;2023-07-16T06:37:08;13.45;;;7.00;;
41293;SDS011;27037;52.010;4.446;2023-07-16T06:39:33;17.65;;;7.70;;
41293;SDS011;27037;52.010;4.446;2023-07-16T06:41:59;17.95;;;6.85;;
41293;SDS011;27037;52.010;4.446;2023-07-16T06:44:25;16.33;;;7.35;;
41293;SDS011;27037;52.010;4.446;2023-07-16T06:46:50;17.40;;;7.22;;
41293;SDS011;27037;52.010;4.446;2023-07-16T06:49:16;21.77;;;7.78;;
41293;SDS011;27037;52.010;4.446;2023-07-16T06:51:42;16.38;;;7.10;;
41293;SDS011;27037;52.010;4.446;2023-07-16T06:54:07;17.92;;;7.38;;
41293;SDS011;27037;52.010;4.446;2023-07-16T06:56:33;16.15;;;7.50;;
41293;SDS011;27037;52.010;4.446;2023-07-16T06:58:59;18.85;;;7.80;;
41293;SDS011;27037;52.010;4.446;2023-07-16T07:01:24;19.52;;;7.90;;
41293;SDS011;27037;52.010;4.446;2023-07-16T07:03:52;19.63;;;7.43;;
41293;SDS011;27037;52.010;4.446;2023-07-16T07:06:18;18.27;;;7.55;;
41293;SDS011;27037;52.010;4.446;2023-07-16T07:08:44;20.45;;;7.90;;
41293;SDS011;27037;52.010;4.446;2023-07-16T07:11:10;20.17;;;7.63;;
41293;SDS011;27037;52.010;4.446;2023-07-16T07:13:35;26.25;;;7.75;;
41293;SDS011;27037;52.010;4.446;2023-07-16T07:16:01;19.52;;;7.93;;
41293;SDS011;27037;52.010;4.446;2023-07-16T07:18:27;17.70;;;7.30;;
41293;SDS011;27037;52.010;4.446;2023-07-16T07:20:52;15.52;;;7.40;;
41293;SDS011;27037;52.010;4.446;2023-07-16T07:23:18;20.17;;;7.82;;
41293;SDS011;27037;52.010;4.446;2023-07-16T07:25:48;17.75;;;8.07;;
41293;SDS011;27037;52.010;4.446;2023-07-16T07:28:15;16.38;;;7.97;;
41293;SDS011;27037;52.010;4.446;2023-07-16T07:30:40;18.30;;;7.55;;
41293;SDS011;27037;52.010;4.446;2023-07-16T07:33:06;17.02;;;7.32;;
41293;SDS011;27037;52.010;4.446;2023-07-16T07:35:31;18.20;;;7.40;;
41293;SDS011;27037;52.010;4.446;2023-07-16T07:37:57;16.33;;;7.32;;
41293;SDS011;27037;52.010;4.446;2023-07-16T07:40:23;23.08;;;8.15;;
41293;SDS011;27037;52.010;4.446;2023-07-16T07:42:48;15.55;;;6.93;;
41293;SDS011;27037;52.010;4.446;2023-07-16T07:45:14;15.93;;;7.13;;
41293;SDS011;27037;52.010;4.446;2023-07-16T07:47:40;21.98;;;6.65;;
41293;SDS011;27037;52.010;4.446;2023-07-16T07:50:06;18.77;;;7.57;;
41293;SDS011;27037;52.010;4.446;2023-07-16T07:52:32;16.67;;;7.40;;
41293;SDS011;27037;52.010;4.446;2023-07-16T07:54:58;17.02;;;7.68;;
41293;SDS011;27037;52.010;4.446;2023-07-16T07:57:23;18.60;;;8.05;;
41293;SDS011;27037;52.010;4.446;2023-07-16T07:59:49;17.00;;;7.57;;
41293;SDS011;27037;52.010;4.446;2023-07-16T08:02:17;14.18;;;6.32;;
41293;SDS011;27037;52.010;4.446;2023-07-16T08:04:43;17.15;;;6.80;;
41293;SDS011;27037;52.010;4.446;2023-07-16T08:07:10;19.55;;;6.85;;
41293;SDS011;27037;52.010;4.446;2023-07-16T08:09:37;13.55;;;5.75;;
41293;SDS011;27037;52.010;4.446;2023-07-16T08:12:02;17.10;;;6.25;;
41293;SDS011;27037;52.010;4.446;2023-07-16T08:14:28;17.15;;;6.68;;
41293;SDS011;27037;52.010;4.446;2023-07-16T08:16:54;12.25;;;5.75;;
41293;SDS011;27037;52.010;4.446;2023-07-16T08:19:19;13.63;;;6.28;;
41293;SDS011;27037;52.010;4.446;2023-07-16T08:21:45;18.50;;;6.20;;
41293;SDS011;27037;52.010;4.446;2023-07-16T08:24:11;17.00;;;6.65;;
41293;SDS011;27037;52.010;4.446;2023-07-16T08:26:36;14.43;;;6.30;;
41293;SDS011;27037;52.010;4.446;2023-07-16T08:29:02;13.02;;;6.28;;
41293;SDS011;27037;52.010;4.446;2023-07-16T08:31:28;18.08;;;6.90;;
41293;SDS011;27037;52.010;4.446;2023-07-16T08:33:54;16.48;;;6.00;;
41293;SDS011;27037;52.010;4.446;2023-07-16T08:36:20;16.55;;;6.28;;
41293;SDS011;27037;52.010;4.446;2023-07-16T08:38:45;15.80;;;6.38;;
41293;SDS011;27037;52.010;4.446;2023-07-16T08:41:11;14.88;;;6.75;;
41293;SDS011;27037;52.010;4.446;2023-07-16T08:43:37;19.30;;;7.05;;
41293;SDS011;27037;52.010;4.446;2023-07-16T08:46:04;15.45;;;6.53;;
41293;SDS011;27037;52.010;4.446;2023-07-16T08:48:30;16.40;;;7.38;;
41293;SDS011;27037;52.010;4.446;2023-07-16T08:50:57;15.63;;;7.10;;
41293;SDS011;27037;52.010;4.446;2023-07-16T08:53:23;19.27;;;7.28;;
41293;SDS011;27037;52.010;4.446;2023-07-16T08:55:49;18.73;;;7.47;;
41293;SDS011;27037;52.010;4.446;2023-07-16T08:58:15;18.95;;;7.95;;
41293;SDS011;27037;52.010;4.446;2023-07-16T09:00:42;23.02;;;7.60;;
41293;SDS011;27037;52.010;4.446;2023-07-16T09:03:10;19.90;;;7.43;;
41293;SDS011;27037;52.010;4.446;2023-07-16T09:05:38;21.50;;;7.72;;
41293;SDS011;27037;52.010;4.446;2023-07-16T09:08:04;19.75;;;6.97;;
41293;SDS011;27037;52.010;4.446;2023-07-16T09:10:29;19.10;;;7.07;;
41293;SDS011;27037;52.010;4.446;2023-07-16T09:12:57;18.00;;;6.30;;
41293;SDS011;27037;52.010;4.446;2023-07-16T09:15:23;16.77;;;6.40;;
41293;SDS011;27037;52.010;4.446;2023-07-16T09:17:49;16.58;;;6.15;;
41293;SDS011;27037;52.010;4.446;2023-07-16T09:20:15;17.77;;;6.38;;
41293;SDS011;27037;52.010;4.446;2023-07-16T09:22:42;13.43;;;5.45;;
41293;SDS011;27037;52.010;4.446;2023-07-16T09:25:08;14.80;;;5.35;;
41293;SDS011;27037;52.010;4.446;2023-07-16T09:27:35;16.90;;;5.60;;
41293;SDS011;27037;52.010;4.446;2023-07-16T09:30:02;19.60;;;5.80;;
41293;SDS011;27037;52.010;4.446;2023-07-16T09:32:36;17.23;;;5.32;;
41293;SDS011;27037;52.010;4.446;2023-07-16T09:35:14;17.42;;;5.95;;
41293;SDS011;27037;52.010;4.446;2023-07-16T09:37:41;16.08;;;5.57;;
41293;SDS011;27037;52.010;4.446;2023-07-16T09:40:08;15.43;;;5.50;;
41293;SDS011;27037;52.010;4.446;2023-07-16T09:42:41;15.98;;;5.43;;
41293;SDS011;27037;52.010;4.446;2023-07-16T09:45:12;16.02;;;5.07;;
41293;SDS011;27037;52.010;4.446;2023-07-16T09:47:44;13.85;;;5.10;;
41293;SDS011;27037;52.010;4.446;2023-07-16T09:50:10;13.27;;;5.35;;
41293;SDS011;27037;52.010;4.446;2023-07-16T09:52:36;15.40;;;4.97;;
41293;SDS011;27037;52.010;4.446;2023-07-16T09:55:04;15.88;;;4.75;;
41293;SDS011;27037;52.010;4.446;2023-07-16T09:57:36;16.33;;;5.75;;
41293;SDS011;27037;52.010;4.446;2023-07-16T10:00:06;17.85;;;5.63;;
41293;SDS011;27037;52.010;4.446;2023-07-16T10:02:39;15.13;;;5.75;;
41293;SDS011;27037;52.010;4.446;2023-07-16T10:05:14;13.13;;;4.78;;
41293;SDS011;27037;52.010;4.446;2023-07-16T10:07:43;13.65;;;3.88;;
41293;SDS011;27037;52.010;4.446;2023-07-16T10:10:15;12.32;;;3.92;;
41293;SDS011;27037;52.010;4.446;2023-07-16T10:12:42;8.98;;;3.35;;
41293;SDS011;27037;52.010;4.446;2023-07-16T10:15:24;11.55;;;3.45;;
41293;SDS011;27037;52.010;4.446;2023-07-16T10:17:54;17.20;;;3.78;;
41293;SDS011;27037;52.010;4.446;2023-07-16T10:20:36;11.85;;;3.58;;
41293;SDS011;27037;52.010;4.446;2023-07-16T10:23:14;10.52;;;3.10;;
41293;SDS011;27037;52.010;4.446;2023-07-16T10:25:47;12.27;;;3.40;;
41293;SDS011;27037;52.010;4.446;2023-07-16T10:28:30;18.58;;;3.42;;
41293;SDS011;27037;52.010;4.446;2023-07-16T10:31:00;8.70;;;3.13;;
41293;SDS011;27037;52.010;4.446;2023-07-16T10:33:26;9.68;;;3.40;;
41293;SDS011;27037;52.010;4.446;2023-07-16T10:35:51;10.68;;;3.20;;
41293;SDS011;27037;52.010;4.446;2023-07-16T10:38:17;11.48;;;2.92;;
41293;SDS011;27037;52.010;4.446;2023-07-16T10:40:43;14.45;;;3.00;;
41293;SDS011;27037;52.010;4.446;2023-07-16T10:43:09;14.27;;;3.30;;
41293;SDS011;27037;52.010;4.446;2023-07-16T10:45:35;39.70;;;5.65;;
41293;SDS011;27037;52.010;4.446;2023-07-16T10:48:02;13.50;;;2.60;;
41293;SDS011;27037;52.010;4.446;2023-07-16T10:50:28;10.30;;;2.75;;
41293;SDS011;27037;52.010;4.446;2023-07-16T10:52:54;15.68;;;3.42;;
41293;SDS011;27037;52.010;4.446;2023-07-16T10:55:21;10.60;;;2.70;;
41293;SDS011;27037;52.010;4.446;2023-07-16T10:57:48;8.73;;;3.15;;
41293;SDS011;27037;52.010;4.446;2023-07-16T11:00:14;12.15;;;3.20;;
41293;SDS011;27037;52.010;4.446;2023-07-16T11:02:41;11.32;;;3.00;;
41293;SDS011;27037;52.010;4.446;2023-07-16T11:05:12;17.95;;;3.45;;
41293;SDS011;27037;52.010;4.446;2023-07-16T11:07:48;12.80;;;2.90;;
41293;SDS011;27037;52.010;4.446;2023-07-16T11:10:17;13.18;;;2.67;;
41293;SDS011;27037;52.010;4.446;2023-07-16T11:12:43;12.95;;;2.92;;
41293;SDS011;27037;52.010;4.446;2023-07-16T11:15:09;9.68;;;2.80;;
41293;SDS011;27037;52.010;4.446;2023-07-16T11:17:38;14.80;;;3.08;;
41293;SDS011;27037;52.010;4.446;2023-07-16T11:20:06;13.45;;;2.88;;
41293;SDS011;27037;52.010;4.446;2023-07-16T11:22:36;11.63;;;2.65;;
41293;SDS011;27037;52.010;4.446;2023-07-16T11:25:04;12.55;;;2.17;;
41293;SDS011;27037;52.010;4.446;2023-07-16T11:27:35;8.35;;;2.13;;
41293;SDS011;27037;52.010;4.446;2023-07-16T11:30:01;11.25;;;2.75;;
41293;SDS011;27037;52.010;4.446;2023-07-16T11:35:01;12.45;;;2.92;;
41293;SDS011;27037;52.010;4.446;2023-07-16T11:37:29;11.93;;;2.50;;
41293;SDS011;27037;52.010;4.446;2023-07-16T11:40:03;13.80;;;2.83;;
41293;SDS011;27037;52.010;4.446;2023-07-16T11:42:33;16.85;;;2.40;;
41293;SDS011;27037;52.010;4.446;2023-07-16T11:45:00;12.30;;;2.65;;
41293;SDS011;27037;52.010;4.446;2023-07-16T11:47:27;12.27;;;2.60;;
41293;SDS011;27037;52.010;4.446;2023-07-16T11:49:53;9.60;;;2.33;;
41293;SDS011;27037;52.010;4.446;2023-07-16T11:52:20;14.50;;;2.30;;
41293;SDS011;27037;52.010;4.446;2023-07-16T11:54:46;17.00;;;2.50;;
41293;SDS011;27037;52.010;4.446;2023-07-16T11:57:12;14.57;;;2.20;;
41293;SDS011;27037;52.010;4.446;2023-07-16T11:59:38;20.30;;;2.78;;
41293;SDS011;27037;52.010;4.446;2023-07-16T12:02:03;18.02;;;2.60;;
41293;SDS011;27037;52.010;4.446;2023-07-16T12:04:29;17.13;;;2.45;;
41293;SDS011;27037;52.010;4.446;2023-07-16T12:06:55;17.77;;;2.83;;
41293;SDS011;27037;52.010;4.446;2023-07-16T12:09:20;17.92;;;2.83;;
41293;SDS011;27037;52.010;4.446;2023-07-16T12:11:46;16.15;;;2.53;;
41293;SDS011;27037;52.010;4.446;2023-07-16T12:14:12;15.73;;;2.60;;
41293;SDS011;27037;52.010;4.446;2023-07-16T12:16:38;11.82;;;2.65;;
41293;SDS011;27037;52.010;4.446;2023-07-16T12:19:05;14.95;;;2.75;;
41293;SDS011;27037;52.010;4.446;2023-07-16T12:21:32;10.98;;;2.58;;
41293;SDS011;27037;52.010;4.446;2023-07-16T12:23:57;16.35;;;2.72;;
41293;SDS011;27037;52.010;4.446;2023-07-16T12:26:23;14.82;;;3.03;;
41293;SDS011;27037;52.010;4.446;2023-07-16T12:28:48;15.90;;;2.72;;
41293;SDS011;27037;52.010;4.446;2023-07-16T12:31:14;19.08;;;2.97;;
41293;SDS011;27037;52.010;4.446;2023-07-16T12:33:41;15.80;;;2.35;;
41293;SDS011;27037;52.010;4.446;2023-07-16T12:36:07;11.60;;;2.70;;
41293;SDS011;27037;52.010;4.446;2023-07-16T12:38:33;12.05;;;2.50;;
41293;SDS011;27037;52.010;4.446;2023-07-16T12:40:58;17.17;;;2.80;;
41293;SDS011;27037;52.010;4.446;2023-07-16T12:43:24;14.05;;;2.85;;
41293;SDS011;27037;52.010;4.446;2023-07-16T12:45:49;16.52;;;2.90;;
41293;SDS011;27037;52.010;4.446;2023-07-16T12:48:15;19.02;;;3.00;;
41293;SDS011;27037;52.010;4.446;2023-07-16T12:50:41;11.20;;;2.40;;
41293;SDS011;27037;52.010;4.446;2023-07-16T12:53:06;22.92;;;2.92;;
41293;SDS011;27037;52.010;4.446;2023-07-16T12:55:32;14.48;;;2.67;;
41293;SDS011;27037;52.010;4.446;2023-07-16T12:57:58;15.45;;;2.78;;
41293;SDS011;27037;52.010;4.446;2023-07-16T13:00:24;17.05;;;3.00;;
41293;SDS011;27037;52.010;4.446;2023-07-16T13:02:50;12.52;;;2.97;;
41293;SDS011;27037;52.010;4.446;2023-07-16T13:05:16;14.02;;;2.97;;
41293;SDS011;27037;52.010;4.446;2023-07-16T13:07:41;13.70;;;2.90;;
41293;SDS011;27037;52.010;4.446;2023-07-16T13:10:07;13.27;;;2.85;;
41293;SDS011;27037;52.010;4.446;2023-07-16T13:12:34;16.55;;;2.95;;
41293;SDS011;27037;52.010;4.446;2023-07-16T13:15:00;18.48;;;2.50;;
41293;SDS011;27037;52.010;4.446;2023-07-16T13:17:25;13.60;;;2.88;;
41293;SDS011;27037;52.010;4.446;2023-07-16T13:19:51;14.95;;;3.00;;
41293;SDS011;27037;52.010;4.446;2023-07-16T13:22:16;14.30;;;2.60;;
41293;SDS011;27037;52.010;4.446;2023-07-16T13:24:42;13.63;;;2.40;;
41293;SDS011;27037;52.010;4.446;2023-07-16T13:27:09;14.43;;;3.15;;
41293;SDS011;27037;52.010;4.446;2023-07-16T13:29:44;17.13;;;3.40;;
41293;SDS011;27037;52.010;4.446;2023-07-16T13:32:09;37.65;;;3.58;;
41293;SDS011;27037;52.010;4.446;2023-07-16T13:34:35;19.02;;;3.25;;
41293;SDS011;27037;52.010;4.446;2023-07-16T13:37:01;18.48;;;3.13;;
41293;SDS011;27037;52.010;4.446;2023-07-16T13:39:26;20.25;;;3.50;;
41293;SDS011;27037;52.010;4.446;2023-07-16T13:41:52;21.27;;;3.30;;
41293;SDS011;27037;52.010;4.446;2023-07-16T13:44:18;83.30;;;7.22;;
41293;SDS011;27037;52.010;4.446;2023-07-16T13:46:43;17.05;;;3.20;;
41293;SDS011;27037;52.010;4.446;2023-07-16T13:49:09;22.20;;;3.60;;
41293;SDS011;27037;52.010;4.446;2023-07-16T13:51:34;18.33;;;3.15;;
41293;SDS011;27037;52.010;4.446;2023-07-16T13:54:00;17.23;;;3.45;;
41293;SDS011;27037;52.010;4.446;2023-07-16T13:56:26;19.95;;;3.40;;
41293;SDS011;27037;52.010;4.446;2023-07-16T13:58:51;23.35;;;3.67;;
41293;SDS011;27037;52.010;4.446;2023-07-16T14:01:18;19.25;;;3.40;;
41293;SDS011;27037;52.010;4.446;2023-07-16T14:03:44;24.65;;;4.22;;
41293;SDS011;27037;52.010;4.446;2023-07-16T14:06:10;16.35;;;3.45;;
41293;SDS011;27037;52.010;4.446;2023-07-16T14:08:36;19.83;;;3.38;;
41293;SDS011;27037;52.010;4.446;2023-07-16T14:11:01;14.02;;;3.00;;
41293;SDS011;27037;52.010;4.446;2023-07-16T14:13:28;17.77;;;3.28;;
41293;SDS011;27037;52.010;4.446;2023-07-16T14:15:54;20.85;;;3.17;;
41293;SDS011;27037;52.010;4.446;2023-07-16T14:18:19;19.83;;;3.17;;
41293;SDS011;27037;52.010;4.446;2023-07-16T14:20:45;17.83;;;3.03;;
41293;SDS011;27037;52.010;4.446;2023-07-16T14:23:11;20.98;;;3.47;;
41293;SDS011;27037;52.010;4.446;2023-07-16T14:25:37;18.48;;;3.55;;
41293;SDS011;27037;52.010;4.446;2023-07-16T14:28:02;17.88;;;3.30;;
41293;SDS011;27037;52.010;4.446;2023-07-16T14:30:28;15.20;;;3.30;;
41293;SDS011;27037;52.010;4.446;2023-07-16T14:32:54;19.25;;;3.50;;
41293;SDS011;27037;52.010;4.446;2023-07-16T14:35:20;22.45;;;3.55;;
41293;SDS011;27037;52.010;4.446;2023-07-16T14:37:46;25.85;;;3.67;;
41293;SDS011;27037;52.010;4.446;2023-07-16T14:40:12;16.48;;;3.25;;
41293;SDS011;27037;52.010;4.446;2023-07-16T14:42:38;18.15;;;3.63;;